createdAt,value
2019-04-11T00:01:12.863Z,37.83
2019-04-11T00:03:45.720Z,40.83
2019-04-11T00:06:17.506Z,42.65
2019-04-11T00:08:49.948Z,30.35
2019-04-11T00:11:21.944Z,40.85
2019-04-11T00:13:53.645Z,35.95
2019-04-11T00:16:25.555Z,41.80
2019-04-11T00:18:57.107Z,31.00
2019-04-11T00:21:28.853Z,38.48
2019-04-11T00:24:00.759Z,29.18
2019-04-11T00:26:32.739Z,27.37
2019-04-11T00:29:04.339Z,26.25
2019-04-11T00:31:36.885Z,28.87
2019-04-11T00:34:10.982Z,29.12
2019-04-11T00:36:42.893Z,28.95
2019-04-11T00:39:15.308Z,28.75
2019-04-11T00:41:48.140Z,32.40
2019-04-11T00:44:19.596Z,34.48
2019-04-11T00:49:22.185Z,29.20
2019-04-11T00:51:54.167Z,34.25
2019-04-11T00:54:26.893Z,38.33
2019-04-11T00:56:58.825Z,36.15
2019-04-11T00:59:30.568Z,38.10
2019-04-11T01:02:02.629Z,45.63
2019-04-11T01:04:34.948Z,53.48
2019-04-11T01:07:06.894Z,59.60
2019-04-11T01:09:38.707Z,63.58
2019-04-11T01:12:10.767Z,72.62
2019-04-11T01:14:42.758Z,72.22
2019-04-11T01:17:14.937Z,68.47
2019-04-11T01:19:46.893Z,75.05
2019-04-11T01:22:18.514Z,70.67
2019-04-11T01:24:50.306Z,68.30
2019-04-11T01:27:21.926Z,68.87
2019-04-11T01:29:53.683Z,70.17
2019-04-11T01:32:25.133Z,69.62
2019-04-11T01:34:57.168Z,68.95
2019-04-11T01:37:28.668Z,62.27
2019-04-11T01:40:01.562Z,77.10
2019-04-11T01:42:33.548Z,77.55
2019-04-11T01:45:07.433Z,68.37
2019-04-11T01:47:43.250Z,65.20
2019-04-11T01:50:16.825Z,64.35
2019-04-11T01:52:48.788Z,69.45
2019-04-11T01:55:20.668Z,73.95
2019-04-11T01:57:52.237Z,66.85
